Time;durP1;ratioP1;P1;durP2;ratioP2;P2;SDS_P1;SDS_P2;PMS_P1;PMS_P2;Temp;Humidity;BMP_temperature;BMP_pressure;BME280_temperature;BME280_humidity;BME280_pressure;Samples;Min_cycle;Max_cycle;Signal;HPM_P1;HPM_P2
2023/03/10 00:02:16;;;;;;;;;;;;;;;6.48;100.00;96178.81;5079593;28;19947;-68
2023/03/10 00:04:43;;;;;;;;;;;;;;;6.44;100.00;96167.19;5061695;28;19924;-66
2023/03/10 00:07:10;;;;;;;;;;;;;;;6.42;100.00;96158.72;5062010;28;19984;-67
2023/03/10 00:09:36;;;;;;;;;;;;;;;6.49;100.00;96169.00;5067487;28;19952;-68
2023/03/10 00:12:02;;;;;;;;;;;;;;;6.53;100.00;96162.06;5067851;28;19991;-68
2023/03/10 00:14:29;;;;;;;;;;;;;;;6.59;100.00;96163.63;5067801;28;20659;-67
2023/03/10 00:16:55;;;;;;;;;;;;;;;6.73;100.00;96161.09;5067601;28;20023;-68
2023/03/10 00:19:21;;;;;;;;;;;;;;;6.65;100.00;96156.41;5067634;28;19935;-65
2023/03/10 00:21:49;;;;;;;;;;;;;;;6.76;100.00;96163.19;5067682;28;19921;-66
2023/03/10 00:24:15;;;;;;;;;;;;;;;6.69;100.00;96160.84;5067416;28;19947;-68
2023/03/10 00:26:42;;;;;;;;;;;;;;;6.73;100.00;96147.81;5067365;28;19928;-66
2023/03/10 00:29:10;;;;;;;;;;;;;;;6.73;100.00;96158.44;5067144;28;19947;-67
2023/03/10 00:31:37;;;;;;;;;;;;;;;7.14;100.00;96154.28;5080038;28;19932;-67
2023/03/10 00:34:03;;;;;;;;;;;;;;;7.22;100.00;96148.34;5075515;28;19996;-66
2023/03/10 00:36:30;;;;;;;;;;;;;;;6.96;100.00;96149.72;5078135;28;19932;-66
2023/03/10 00:38:59;;;;;;;;;;;;;;;6.89;100.00;96141.28;5079093;28;19925;-66
2023/03/10 00:41:26;;;;;;;;;;;;;;;6.89;100.00;96131.47;5077148;28;19940;-67
2023/03/10 00:43:53;;;;;;;;;;;;;;;6.86;100.00;96128.59;5074386;28;19928;-66
2023/03/10 00:46:20;;;;;;;;;;;;;;;7.38;100.00;96123.19;5076701;28;19924;-68
2023/03/10 00:48:46;;;;;;;;;;;;;;;7.09;100.00;96119.06;5078715;28;19984;-66
2023/03/10 00:51:12;;;;;;;;;;;;;;;7.18;100.00;96114.69;5078795;28;19924;-66
2023/03/10 00:53:40;;;;;;;;;;;;;;;7.32;100.00;96108.38;5057416;28;19925;-66
2023/03/10 00:56:08;;;;;;;;;;;;;;;7.41;100.00;96105.88;5075123;28;19976;-65
2023/03/10 00:58:35;;;;;;;;;;;;;;;7.39;100.00;96108.84;5077458;28;19969;-65
2023/03/10 01:01:02;;;;;;;;;;;;;;;7.01;100.00;96104.53;5065244;28;19936;-66
2023/03/10 01:03:28;;;;;;;;;;;;;;;6.92;100.00;96100.94;5057819;28;19956;-66
2023/03/10 01:05:55;;;;;;;;;;;;;;;7.24;100.00;96098.38;5056819;28;19967;-67
2023/03/10 01:08:22;;;;;;;;;;;;;;;6.70;100.00;96108.59;5076286;28;20047;-66
2023/03/10 01:10:49;;;;;;;;;;;;;;;6.87;100.00;96106.31;5078540;28;19951;-65
2023/03/10 01:13:17;;;;;;;;;;;;;;;6.68;100.00;96103.59;5077554;28;19974;-66
2023/03/10 01:15:46;;;;;;;;;;;;;;;6.57;100.00;96090.69;5074518;28;19989;-66
2023/03/10 01:18:12;;;;;;;;;;;;;;;6.44;100.00;96092.94;5056861;28;19925;-67
2023/03/10 01:20:40;;;;;;;;;;;;;;;6.33;100.00;96078.22;5078138;28;19984;-68
2023/03/10 01:23:07;;;;;;;;;;;;;;;6.77;100.00;96083.34;5060316;28;19924;-67
2023/03/10 01:25:33;;;;;;;;;;;;;;;6.48;100.00;96078.06;5057093;28;19924;-65
2023/03/10 01:27:59;;;;;;;;;;;;;;;6.58;100.00;96060.47;5074870;28;20012;-65
2023/03/10 01:30:27;;;;;;;;;;;;;;;6.36;100.00;96050.34;5063344;28;19959;-65
2023/03/10 01:32:53;;;;;;;;;;;;;;;6.27;100.00;96044.09;5059904;28;19991;-65
2023/03/10 01:35:20;;;;;;;;;;;;;;;6.19;100.00;96045.47;5076608;28;20604;-67
2023/03/10 01:37:46;;;;;;;;;;;;;;;6.52;100.00;96043.81;5074359;28;19983;-67
2023/03/10 01:40:15;;;;;;;;;;;;;;;6.31;100.00;96032.63;5074463;28;19996;-67
2023/03/10 01:42:41;;;;;;;;;;;;;;;6.27;100.00;96022.88;5077591;28;19925;-65
2023/03/10 01:45:09;;;;;;;;;;;;;;;6.43;100.00;96026.97;5077582;28;19988;-65
2023/03/10 01:47:37;;;;;;;;;;;;;;;6.34;100.00;96023.34;5056035;28;19992;-67
2023/03/10 01:50:04;;;;;;;;;;;;;;;6.33;100.00;96004.00;5073794;28;19959;-67
2023/03/10 01:52:33;;;;;;;;;;;;;;;6.79;100.00;96004.25;5058880;28;20000;-66
2023/03/10 01:55:02;;;;;;;;;;;;;;;6.81;100.00;95990.69;5059434;28;19975;-65
2023/03/10 01:57:29;;;;;;;;;;;;;;;6.78;100.00;95983.28;5074761;28;19952;-66
2023/03/10 01:59:56;;;;;;;;;;;;;;;7.09;100.00;95991.66;5076411;28;19925;-65
2023/03/10 02:02:23;;;;;;;;;;;;;;;6.54;100.00;95983.34;5077469;28;19952;-66
2023/03/10 02:04:52;;;;;;;;;;;;;;;7.04;100.00;95989.84;5077295;28;19939;-65
2023/03/10 02:07:20;;;;;;;;;;;;;;;6.93;100.00;95970.63;5076096;28;19952;-66
2023/03/10 02:09:48;;;;;;;;;;;;;;;6.85;100.00;95981.09;5073563;28;19955;-65
2023/03/10 02:12:15;;;;;;;;;;;;;;;6.72;100.00;95974.63;5074252;28;20011;-67
2023/03/10 02:14:43;;;;;;;;;;;;;;;7.04;100.00;95981.88;5077133;28;19970;-66
2023/03/10 02:17:12;;;;;;;;;;;;;;;6.67;100.00;95968.59;5059122;28;19976;-67
2023/03/10 02:19:57;;;;;;;;;;;;;;;6.67;100.00;95963.28;5073535;28;19928;-68
2023/03/10 02:22:23;;;;;;;;;;;;;;;6.70;100.00;95962.72;5075305;28;19959;-67
2023/03/10 02:24:52;;;;;;;;;;;;;;;6.95;100.00;95975.66;5076859;28;20000;-65
2023/03/10 02:27:21;;;;;;;;;;;;;;;6.81;100.00;95966.81;5075907;28;19925;-66
2023/03/10 02:29:50;;;;;;;;;;;;;;;6.98;100.00;95948.53;5074877;28;20475;-66
2023/03/10 02:32:17;;;;;;;;;;;;;;;6.64;100.00;95927.53;5058682;28;19931;-66
2023/03/10 02:34:43;;;;;;;;;;;;;;;7.14;100.00;95933.97;5076631;28;20027;-66
2023/03/10 02:37:17;;;;;;;;;;;;;;;6.64;100.00;95926.72;5058630;28;19948;-65
2023/03/10 02:39:44;;;;;;;;;;;;;;;6.84;100.00;95921.16;5063427;28;19988;-67
2023/03/10 02:42:11;;;;;;;;;;;;;;;7.03;100.00;95921.91;5064738;28;19921;-65
2023/03/10 02:44:39;;;;;;;;;;;;;;;6.96;100.00;95916.22;5064778;28;19925;-66
2023/03/10 02:47:06;;;;;;;;;;;;;;;6.66;100.00;95909.47;5072859;28;19984;-68
2023/03/10 02:49:34;;;;;;;;;;;;;;;7.02;100.00;95912.41;5075924;28;19924;-65
2023/03/10 02:52:02;;;;;;;;;;;;;;;7.22;100.00;95916.59;5076717;28;19967;-68
2023/03/10 02:54:29;;;;;;;;;;;;;;;7.07;100.00;95914.97;5073937;28;20646;-67
2023/03/10 02:56:55;;;;;;;;;;;;;;;7.33;100.00;95904.75;5073005;28;19963;-66
2023/03/10 02:59:21;;;;;;;;;;;;;;;6.68;100.00;95899.38;5074417;28;19936;-68
2023/03/10 03:01:49;;;;;;;;;;;;;;;6.38;100.00;95894.44;5062237;28;19929;-66
2023/03/10 03:04:15;;;;;;;;;;;;;;;6.78;100.00;95882.50;5073863;28;19932;-65
2023/03/10 03:06:42;;;;;;;;;;;;;;;6.74;100.00;95884.97;5076600;28;19924;-66
2023/03/10 03:09:08;;;;;;;;;;;;;;;6.19;100.00;95878.53;5076372;28;20282;-66
2023/03/10 03:11:34;;;;;;;;;;;;;;;6.20;100.00;95869.50;5073088;28;19925;-66
2023/03/10 03:14:01;;;;;;;;;;;;;;;6.66;100.00;95871.53;5072963;28;19959;-67
2023/03/10 03:16:27;;;;;;;;;;;;;;;6.48;100.00;95867.81;5074925;28;19988;-66
2023/03/10 03:18:55;;;;;;;;;;;;;;;6.79;100.00;95886.72;5076608;28;19974;-67
2023/03/10 03:21:21;;;;;;;;;;;;;;;6.98;100.00;95896.28;5075639;28;19988;-67
2023/03/10 03:23:48;;;;;;;;;;;;;;;7.00;100.00;95870.22;5077148;28;19925;-64
2023/03/10 03:26:16;;;;;;;;;;;;;;;6.86;100.00;95868.59;5077090;28;19972;-66
2023/03/10 03:28:44;;;;;;;;;;;;;;;6.93;100.00;95869.03;5080133;28;19951;-66
2023/03/10 03:31:13;;;;;;;;;;;;;;;6.60;100.00;95857.56;5084833;28;19963;-67
2023/03/10 03:33:40;;;;;;;;;;;;;;;6.88;100.00;95861.91;5067130;28;19920;-66
2023/03/10 03:36:08;;;;;;;;;;;;;;;6.84;100.00;95868.88;5068532;28;20052;-67
2023/03/10 03:38:34;;;;;;;;;;;;;;;6.68;100.00;95874.72;5068161;28;19925;-68
2023/03/10 03:41:01;;;;;;;;;;;;;;;6.49;100.00;95880.00;5068405;28;19960;-66
2023/03/10 03:43:28;;;;;;;;;;;;;;;6.74;100.00;95878.84;5068344;28;19960;-66
2023/03/10 03:45:54;;;;;;;;;;;;;;;6.55;100.00;95886.03;5068591;28;19933;-65
2023/03/10 03:48:21;;;;;;;;;;;;;;;6.82;100.00;95880.84;5050002;28;19966;-67
2023/03/10 03:50:48;;;;;;;;;;;;;;;6.81;100.00;95889.88;5068083;28;20031;-65
2023/03/10 03:53:15;;;;;;;;;;;;;;;6.53;100.00;95884.44;5067909;28;19929;-68
2023/03/10 03:55:42;;;;;;;;;;;;;;;6.70;100.00;95883.16;5049894;28;19952;-68
2023/03/10 03:58:08;;;;;;;;;;;;;;;6.83;100.00;95879.78;5050142;28;19948;-68
2023/03/10 04:00:35;;;;;;;;;;;;;;;6.66;100.00;95882.13;5075723;28;20276;-66
2023/03/10 04:03:01;;;;;;;;;;;;;;;6.53;100.00;95863.22;5079667;28;19963;-66
2023/03/10 04:05:27;;;;;;;;;;;;;;;6.33;100.00;95881.28;5077283;28;19955;-65
2023/03/10 04:07:54;;;;;;;;;;;;;;;6.57;100.00;95867.94;5076081;28;19929;-69
2023/03/10 04:10:23;;;;;;;;;;;;;;;6.94;100.00;95878.53;5059384;28;19971;-67
2023/03/10 04:12:49;;;;;;;;;;;;;;;6.73;100.00;95877.28;5079196;28;19928;-66
2023/03/10 04:15:15;;;;;;;;;;;;;;;7.01;100.00;95881.63;5078631;28;20007;-67
2023/03/10 04:17:42;;;;;;;;;;;;;;;6.57;100.00;95897.13;5057646;28;19952;-67
2023/03/10 04:20:10;;;;;;;;;;;;;;;6.95;100.00;95898.69;5057739;28;20031;-65
2023/03/10 04:22:37;;;;;;;;;;;;;;;6.76;100.00;95893.41;5075846;28;19925;-67
2023/03/10 04:25:04;;;;;;;;;;;;;;;6.97;100.00;95897.34;5057813;28;19975;-68
2023/03/10 04:27:32;;;;;;;;;;;;;;;7.02;100.00;95896.47;5078273;28;20502;-65
2023/03/10 04:29:59;;;;;;;;;;;;;;;7.03;100.00;95904.13;5061026;28;19956;-65
2023/03/10 04:32:25;;;;;;;;;;;;;;;7.16;100.00;95899.97;5078783;28;19967;-67
2023/03/10 04:34:52;;;;;;;;;;;;;;;6.95;100.00;95891.53;5060119;28;19930;-65
2023/03/10 04:37:19;;;;;;;;;;;;;;;7.06;100.00;95900.13;5078086;28;19984;-66
2023/03/10 04:39:45;;;;;;;;;;;;;;;7.22;100.00;95912.06;5075456;28;19963;-67
2023/03/10 04:42:11;;;;;;;;;;;;;;;7.01;100.00;95913.47;5075407;28;20040;-66
2023/03/10 04:44:39;;;;;;;;;;;;;;;6.76;100.00;95909.31;5078578;28;19963;-66
2023/03/10 04:47:06;;;;;;;;;;;;;;;7.05;100.00;95925.09;5078731;28;20551;-66
2023/03/10 04:49:32;;;;;;;;;;;;;;;6.98;100.00;95922.00;5076023;28;19941;-66
2023/03/10 04:51:58;;;;;;;;;;;;;;;6.82;100.00;95933.91;5073979;28;19967;-66
2023/03/10 04:54:25;;;;;;;;;;;;;;;6.84;100.00;95937.84;5077057;28;19951;-64
2023/03/10 04:56:51;;;;;;;;;;;;;;;6.88;100.00;95922.94;5078615;28;19924;-65
2023/03/10 04:59:20;;;;;;;;;;;;;;;6.72;100.00;95912.81;5077960;28;20448;-66
2023/03/10 05:01:48;;;;;;;;;;;;;;;6.58;100.00;95914.63;5079720;28;19925;-67
2023/03/10 05:04:14;;;;;;;;;;;;;;;6.58;100.00;95896.84;5074276;28;19936;-66
2023/03/10 05:06:40;;;;;;;;;;;;;;;6.58;100.00;95902.16;5078355;28;19925;-65
2023/03/10 05:09:07;;;;;;;;;;;;;;;6.81;100.00;95895.19;5078441;28;19924;-66
2023/03/10 05:11:33;;;;;;;;;;;;;;;7.08;100.00;95921.88;5075492;28;19984;-67
2023/03/10 05:13:59;;;;;;;;;;;;;;;7.21;100.00;95926.41;5074885;28;19925;-67
2023/03/10 05:16:26;;;;;;;;;;;;;;;7.27;100.00;95919.94;5076930;28;20007;-68
2023/03/10 05:18:53;;;;;;;;;;;;;;;7.28;100.00;95916.22;5078320;28;19967;-67
2023/03/10 05:21:21;;;;;;;;;;;;;;;7.13;100.00;95928.94;5077012;28;19967;-70
2023/03/10 05:23:47;;;;;;;;;;;;;;;7.25;100.00;95922.13;5056593;28;19925;-69
2023/03/10 05:26:14;;;;;;;;;;;;;;;7.06;100.00;95924.00;5074793;28;19960;-71
2023/03/10 05:28:40;;;;;;;;;;;;;;;7.11;100.00;95931.91;5078124;28;19947;-70
2023/03/10 05:31:08;;;;;;;;;;;;;;;7.08;100.00;95929.81;5082766;28;19943;-72
2023/03/10 05:33:34;;;;;;;;;;;;;;;7.16;100.00;95918.53;5074827;28;19989;-70
2023/03/10 05:36:04;;;;;;;;;;;;;;;7.10;100.00;95942.78;5074571;28;19971;-69
2023/03/10 05:38:30;;;;;;;;;;;;;;;6.98;100.00;95948.53;5077170;28;19952;-70
2023/03/10 05:40:57;;;;;;;;;;;;;;;7.16;100.00;95941.63;5077821;28;19932;-69
2023/03/10 05:43:23;;;;;;;;;;;;;;;7.24;100.00;95927.72;5076183;28;20467;-71
2023/03/10 05:45:54;;;;;;;;;;;;;;;7.28;100.00;95931.34;5073954;28;19932;-65
2023/03/10 05:48:20;;;;;;;;;;;;;;;7.29;100.00;95928.44;5075211;28;19952;-66
2023/03/10 05:50:55;;;;;;;;;;;;;;;7.21;100.00;95923.75;5077714;28;20352;-67
2023/03/10 05:53:24;;;;;;;;;;;;;;;7.28;100.00;95921.53;5076201;28;19924;-65
2023/03/10 05:55:50;;;;;;;;;;;;;;;7.32;100.00;95919.88;5056324;28;19928;-68
2023/03/10 05:58:17;;;;;;;;;;;;;;;7.29;100.00;95911.72;5074797;28;19982;-66
2023/03/10 06:00:43;;;;;;;;;;;;;;;7.35;100.00;95918.50;5064366;28;19992;-67
2023/03/10 06:03:10;;;;;;;;;;;;;;;7.39;100.00;95914.19;5059501;28;20568;-69
2023/03/10 06:05:36;;;;;;;;;;;;;;;7.40;100.00;95919.22;5074053;28;19936;-67
2023/03/10 06:08:02;;;;;;;;;;;;;;;7.45;100.00;95910.38;5073796;28;19925;-66
2023/03/10 06:10:30;;;;;;;;;;;;;;;7.41;100.00;95915.50;5076170;28;19932;-66
2023/03/10 06:12:57;;;;;;;;;;;;;;;7.45;100.00;95907.72;5059285;28;19944;-68
2023/03/10 06:15:23;;;;;;;;;;;;;;;7.48;100.00;95901.84;5058220;28;19932;-67
2023/03/10 06:17:49;;;;;;;;;;;;;;;7.48;100.00;95896.53;5073913;28;19928;-68
2023/03/10 06:20:16;;;;;;;;;;;;;;;7.50;100.00;95887.19;5073500;28;19943;-67
2023/03/10 06:22:42;;;;;;;;;;;;;;;7.50;100.00;95897.81;5077103;28;19967;-69
2023/03/10 06:25:09;;;;;;;;;;;;;;;7.51;100.00;95880.81;5077337;28;19925;-67
2023/03/10 06:27:36;;;;;;;;;;;;;;;7.53;100.00;95886.59;5055591;28;20012;-69
2023/03/10 06:30:03;;;;;;;;;;;;;;;7.59;100.00;95866.84;5077101;28;19995;-68
2023/03/10 06:32:29;;;;;;;;;;;;;;;7.57;100.00;95866.34;5059133;28;19937;-68
2023/03/10 06:34:58;;;;;;;;;;;;;;;7.60;100.00;95876.38;5077219;28;19920;-68
2023/03/10 06:37:24;;;;;;;;;;;;;;;7.63;100.00;95879.53;5075202;28;19992;-67
2023/03/10 06:39:51;;;;;;;;;;;;;;;7.67;100.00;95876.00;5073366;28;19939;-67
2023/03/10 06:42:17;;;;;;;;;;;;;;;7.65;100.00;95877.34;5072925;28;19964;-66
2023/03/10 06:44:45;;;;;;;;;;;;;;;7.61;100.00;95871.88;5077224;28;19971;-67
2023/03/10 06:47:11;;;;;;;;;;;;;;;7.71;100.00;95866.34;5076734;28;20008;-67
2023/03/10 06:49:37;;;;;;;;;;;;;;;7.80;100.00;95869.13;5064924;28;19921;-66
2023/03/10 06:52:04;;;;;;;;;;;;;;;7.76;100.00;95868.13;5065171;28;19992;-66
2023/03/10 06:54:30;;;;;;;;;;;;;;;7.73;100.00;95874.03;5065020;28;19925;-66
2023/03/10 06:56:57;;;;;;;;;;;;;;;7.60;100.00;95876.38;5056928;28;19964;-67
2023/03/10 06:59:23;;;;;;;;;;;;;;;7.59;100.00;95863.38;5067757;28;19925;-65
2023/03/10 07:01:51;;;;;;;;;;;;;;;7.53;100.00;95854.72;5082032;28;19964;-68
2023/03/10 07:04:17;;;;;;;;;;;;;;;7.38;100.00;95862.97;5078090;28;19984;-66
2023/03/10 07:06:44;;;;;;;;;;;;;;;7.23;100.00;95855.25;5080633;28;20290;-65
2023/03/10 07:09:10;;;;;;;;;;;;;;;7.06;100.00;95868.28;5080942;28;19920;-67
2023/03/10 07:11:36;;;;;;;;;;;;;;;7.02;100.00;95860.09;5077443;28;19967;-68
2023/03/10 07:14:03;;;;;;;;;;;;;;;7.07;100.00;95856.59;5059340;28;20023;-67
2023/03/10 07:16:29;;;;;;;;;;;;;;;7.09;100.00;95851.75;5079549;28;19952;-65
2023/03/10 07:18:57;;;;;;;;;;;;;;;7.16;100.00;95865.47;5080658;28;19996;-67
2023/03/10 07:21:23;;;;;;;;;;;;;;;7.09;100.00;95866.94;5061157;28;19925;-67
2023/03/10 07:23:49;;;;;;;;;;;;;;;7.08;100.00;95866.13;5059509;28;20000;-66
2023/03/10 07:26:17;;;;;;;;;;;;;;;7.08;100.00;95858.16;5077640;28;19971;-67
2023/03/10 07:28:44;;;;;;;;;;;;;;;7.07;100.00;95859.25;5062609;28;19932;-64
2023/03/10 07:31:11;;;;;;;;;;;;;;;7.13;100.00;95870.56;5066997;28;19987;-66
2023/03/10 07:33:38;;;;;;;;;;;;;;;7.17;100.00;95866.25;5068355;28;20485;-68
2023/03/10 07:36:06;;;;;;;;;;;;;;;7.21;100.00;95873.31;5068793;28;19933;-68
2023/03/10 07:38:33;;;;;;;;;;;;;;;7.14;100.00;95872.94;5068587;28;19924;-67
2023/03/10 07:40:59;;;;;;;;;;;;;;;7.15;100.00;95869.19;5068513;28;19963;-67
2023/03/10 07:43:26;;;;;;;;;;;;;;;7.14;100.00;95862.31;5068333;28;20004;-66
2023/03/10 07:45:52;;;;;;;;;;;;;;;7.13;100.00;95844.81;5068385;28;19936;-66
2023/03/10 07:48:18;;;;;;;;;;;;;;;7.12;100.00;95869.75;5068282;28;19967;-66
2023/03/10 07:50:45;;;;;;;;;;;;;;;7.13;100.00;95855.44;5050330;28;19921;-66
2023/03/10 07:53:12;;;;;;;;;;;;;;;7.19;100.00;95853.47;5068168;28;19967;-65
2023/03/10 07:55:39;;;;;;;;;;;;;;;7.21;100.00;95856.63;5068059;28;19925;-66
2023/03/10 07:58:05;;;;;;;;;;;;;;;7.20;100.00;95847.09;5075189;28;19929;-66
2023/03/10 08:00:31;;;;;;;;;;;;;;;7.25;100.00;95847.00;5083491;28;19967;-68
2023/03/10 08:02:58;;;;;;;;;;;;;;;7.26;100.00;95853.88;5079344;28;20026;-67
2023/03/10 08:05:27;;;;;;;;;;;;;;;7.28;100.00;95844.53;5077961;28;19992;-66
2023/03/10 08:07:53;;;;;;;;;;;;;;;7.28;100.00;95833.94;5057985;28;19992;-67
2023/03/10 08:10:21;;;;;;;;;;;;;;;7.40;100.00;95834.25;5077193;28;19935;-68
2023/03/10 08:12:47;;;;;;;;;;;;;;;7.32;100.00;95832.28;5061507;28;19950;-67
2023/03/10 08:15:14;;;;;;;;;;;;;;;7.39;100.00;95838.00;5079305;28;19958;-64
2023/03/10 08:17:40;;;;;;;;;;;;;;;7.46;100.00;95826.97;5076254;28;19979;-68
2023/03/10 08:20:07;;;;;;;;;;;;;;;7.53;100.00;95832.69;5076318;28;20268;-66
2023/03/10 08:22:33;;;;;;;;;;;;;;;7.57;100.00;95833.69;5079167;28;19955;-67
2023/03/10 08:25:00;;;;;;;;;;;;;;;7.60;100.00;95825.91;5079525;28;19963;-67
2023/03/10 08:27:29;;;;;;;;;;;;;;;7.72;100.00;95825.44;5059533;28;19928;-65
2023/03/10 08:29:55;;;;;;;;;;;;;;;7.73;100.00;95823.56;5078700;28;19920;-65
2023/03/10 08:32:22;;;;;;;;;;;;;;;7.73;100.00;95816.38;5079257;28;19924;-65
2023/03/10 08:34:48;;;;;;;;;;;;;;;7.83;100.00;95805.53;5079696;28;19925;-66
2023/03/10 08:37:14;;;;;;;;;;;;;;;7.89;100.00;95806.25;5079272;28;20000;-66
2023/03/10 08:39:41;;;;;;;;;;;;;;;7.82;100.00;95798.66;5076043;28;19967;-66
2023/03/10 08:42:09;;;;;;;;;;;;;;;7.83;100.00;95800.22;5075862;28;20023;-69
2023/03/10 08:44:37;;;;;;;;;;;;;;;7.87;100.00;95798.56;5079118;28;20008;-68
2023/03/10 08:47:03;;;;;;;;;;;;;;;7.93;100.00;95792.06;5079043;28;19967;-67
2023/03/10 08:49:30;;;;;;;;;;;;;;;7.95;100.00;95784.56;5076783;28;19928;-67
2023/03/10 08:51:56;;;;;;;;;;;;;;;8.00;100.00;95783.69;5075705;28;19989;-67
2023/03/10 08:54:23;;;;;;;;;;;;;;;8.17;100.00;95788.38;5076761;28;19925;-65
2023/03/10 08:56:49;;;;;;;;;;;;;;;8.22;100.00;95785.59;5079016;28;19932;-66
2023/03/10 08:59:15;;;;;;;;;;;;;;;8.24;100.00;95784.22;5078274;28;20368;-67
2023/03/10 09:01:43;;;;;;;;;;;;;;;8.36;100.00;95789.81;5080136;28;20007;-67
2023/03/10 09:04:10;;;;;;;;;;;;;;;8.44;100.00;95791.00;5075514;28;19924;-67
2023/03/10 09:06:37;;;;;;;;;;;;;;;8.47;100.00;95780.56;5060630;28;20046;-66
2023/03/10 09:09:04;;;;;;;;;;;;;;;8.60;100.00;95778.94;5078772;28;19924;-68
2023/03/10 09:11:31;;;;;;;;;;;;;;;8.63;100.00;95791.63;5076177;28;19968;-66
2023/03/10 09:13:58;;;;;;;;;;;;;;;8.59;100.00;95783.47;5075555;28;19924;-67
2023/03/10 09:16:25;;;;;;;;;;;;;;;8.65;100.00;95784.91;5077052;28;20048;-67
2023/03/10 09:18:52;;;;;;;;;;;;;;;8.73;100.00;95796.69;5078439;28;19953;-66
2023/03/10 09:21:19;;;;;;;;;;;;;;;8.80;100.00;95794.41;5077628;28;20023;-68
2023/03/10 09:23:46;;;;;;;;;;;;;;;8.82;100.00;95789.56;5074976;28;19967;-66
2023/03/10 09:26:13;;;;;;;;;;;;;;;8.91;100.00;95787.75;5075093;28;19943;-68
2023/03/10 09:28:39;;;;;;;;;;;;;;;8.96;100.00;95792.16;5060551;28;19996;-65
2023/03/10 09:31:06;;;;;;;;;;;;;;;8.94;100.00;95783.72;5083025;28;20474;-66
2023/03/10 09:33:33;;;;;;;;;;;;;;;8.98;100.00;95782.00;5075317;28;19970;-66
2023/03/10 09:36:02;;;;;;;;;;;;;;;9.08;100.00;95779.88;5074625;28;19925;-65
2023/03/10 09:38:28;;;;;;;;;;;;;;;9.29;100.00;95777.47;5076954;28;19975;-65
2023/03/10 09:41:02;;;;;;;;;;;;;;;9.35;100.00;95770.13;5078085;28;20007;-67
2023/03/10 09:43:30;;;;;;;;;;;;;;;9.57;100.00;95762.06;5058077;28;20007;-66
2023/03/10 09:45:59;;;;;;;;;;;;;;;9.82;100.00;95760.59;5074682;28;19988;-66
2023/03/10 09:48:31;;;;;;;;;;;;;;;9.98;100.00;95759.84;5076201;28;19925;-66
2023/03/10 09:51:00;;;;;;;;;;;;;;;10.03;100.00;95761.56;5078141;28;19931;-66
2023/03/10 09:53:40;;;;;;;;;;;;;;;10.13;100.00;95751.44;5076597;28;19925;-66
2023/03/10 09:56:10;;;;;;;;;;;;;;;10.36;100.00;95743.28;5073343;28;19972;-68
2023/03/10 09:58:39;;;;;;;;;;;;;;;10.57;100.00;95742.34;5059860;28;19932;-66
2023/03/10 10:01:06;;;;;;;;;;;;;;;10.65;100.00;95744.22;5082617;28;20011;-70
2023/03/10 10:03:34;;;;;;;;;;;;;;;10.67;100.00;95742.03;5074989;28;19988;-68
2023/03/10 10:06:02;;;;;;;;;;;;;;;10.74;100.00;95731.63;5074343;28;19947;-68
2023/03/10 10:08:33;;;;;;;;;;;;;;;10.13;100.00;95737.28;5076697;28;19925;-68
2023/03/10 10:11:01;;;;;;;;;;;;;;;10.21;100.00;95739.22;5060074;28;20629;-66
2023/03/10 10:13:29;;;;;;;;;;;;;;;9.71;100.00;95741.44;5076061;28;19983;-68
2023/03/10 10:15:57;;;;;;;;;;;;;;;9.51;100.00;95726.78;5074071;28;19956;-66
2023/03/10 10:18:28;;;;;;;;;;;;;;;9.67;100.00;95740.47;5075636;28;19960;-67
2023/03/10 10:20:59;;;;;;;;;;;;;;;9.48;100.00;95729.28;5059576;28;19956;-66
2023/03/10 10:23:29;;;;;;;;;;;;;;;9.53;100.00;95719.28;5075851;28;20447;-68
2023/03/10 10:26:00;;;;;;;;;;;;;;;9.52;100.00;95728.38;5056066;28;19964;-66
2023/03/10 10:28:32;;;;;;;;;;;;;;;9.61;100.00;95717.75;5058085;28;19956;-67
2023/03/10 10:31:09;;;;;;;;;;;;;;;9.72;100.00;95717.13;5057036;28;19931;-67
2023/03/10 10:33:50;;;;;;;;;;;;;;;9.83;100.00;95700.84;5073765;28;19924;-67
2023/03/10 10:36:17;;;;;;;;;;;;;;;10.10;100.00;95708.56;5074551;28;19932;-67
2023/03/10 10:38:48;;;;;;;;;;;;;;;10.06;100.00;95702.28;5077347;28;19996;-65
2023/03/10 10:41:16;;;;;;;;;;;;;;;9.88;100.00;95692.69;5077116;28;19958;-68
2023/03/10 10:43:45;;;;;;;;;;;;;;;9.87;100.00;95691.16;5073984;28;19996;-66
2023/03/10 10:46:13;;;;;;;;;;;;;;;9.95;100.00;95699.16;5055854;28;19960;-66
2023/03/10 10:48:41;;;;;;;;;;;;;;;9.97;100.00;95712.16;5074024;28;19947;-67
2023/03/10 10:51:19;;;;;;;;;;;;;;;9.98;100.00;95725.19;5074240;28;19992;-66
2023/03/10 10:53:46;;;;;;;;;;;;;;;9.87;100.00;95721.25;5065672;28;19929;-66
2023/03/10 10:56:13;;;;;;;;;;;;;;;9.98;100.00;95738.50;5047154;28;19925;-69
2023/03/10 10:58:41;;;;;;;;;;;;;;;10.00;100.00;95728.31;5065505;28;19937;-68
2023/03/10 11:01:11;;;;;;;;;;;;;;;9.90;100.00;95712.63;5081916;28;20054;-66
2023/03/10 11:03:38;;;;;;;;;;;;;;;9.71;100.00;95714.78;5073560;28;19928;-64
2023/03/10 11:06:12;;;;;;;;;;;;;;;9.80;100.00;95710.25;5073627;28;19925;-65
2023/03/10 11:08:41;;;;;;;;;;;;;;;9.77;100.00;95717.00;5065073;28;19929;-66
2023/03/10 11:11:15;;;;;;;;;;;;;;;9.83;100.00;95700.84;5065220;28;20112;-66
2023/03/10 11:13:50;;;;;;;;;;;;;;;9.88;100.00;95682.81;5069258;28;19931;-66
2023/03/10 11:16:21;;;;;;;;;;;;;;;10.01;100.00;95687.22;5058292;28;20655;-67
2023/03/10 11:18:52;;;;;;;;;;;;;;;9.97;100.00;95680.94;5073496;28;19955;-67
2023/03/10 11:21:23;;;;;;;;;;;;;;;10.02;100.00;95654.16;5074247;28;19936;-67
2023/03/10 11:23:55;;;;;;;;;;;;;;;10.01;100.00;95662.44;5076829;28;20019;-67
2023/03/10 11:26:26;;;;;;;;;;;;;;;10.13;100.00;95668.75;5076025;28;20023;-68
2023/03/10 11:28:56;;;;;;;;;;;;;;;10.39;100.00;95660.75;5073533;28;19940;-66
2023/03/10 11:31:31;;;;;;;;;;;;;;;10.38;100.00;95648.50;5081430;28;19931;-68
2023/03/10 11:34:02;;;;;;;;;;;;;;;10.41;100.00;95637.19;5073872;28;19947;-67
2023/03/10 11:36:33;;;;;;;;;;;;;;;10.75;100.00;95637.13;5057620;28;19944;-67
2023/03/10 11:39:04;;;;;;;;;;;;;;;10.79;100.00;95638.06;5076658;28;19924;-68
2023/03/10 11:41:32;;;;;;;;;;;;;;;10.86;100.00;95634.13;5074077;28;20015;-67
2023/03/10 11:44:02;;;;;;;;;;;;;;;10.99;100.00;95630.44;5075980;28;20004;-68
2023/03/10 11:46:32;;;;;;;;;;;;;;;10.98;100.00;95604.84;5061150;28;19928;-69
2023/03/10 11:49:05;;;;;;;;;;;;;;;11.07;100.00;95622.41;5062250;28;19935;-69
2023/03/10 11:51:34;;;;;;;;;;;;;;;11.36;100.00;95621.59;5059733;28;19981;-68
2023/03/10 11:54:03;;;;;;;;;;;;;;;11.41;100.00;95629.47;5076919;28;19949;-67
2023/03/10 11:56:30;;;;;;;;;;;;;;;11.33;100.00;95630.28;5079014;28;19925;-66
2023/03/10 11:58:57;;;;;;;;;;;;;;;11.35;100.00;95625.41;5061988;28;19944;-68
2023/03/10 12:01:26;;;;;;;;;;;;;;;11.45;100.00;95633.03;5083256;28;19929;-68
2023/03/10 12:03:58;;;;;;;;;;;;;;;11.59;100.00;95638.94;5075298;28;19924;-67
2023/03/10 12:06:27;;;;;;;;;;;;;;;11.47;100.00;95633.50;5077968;28;20666;-69
2023/03/10 12:08:55;;;;;;;;;;;;;;;11.42;100.00;95623.00;5080037;28;19955;-68
2023/03/10 12:11:24;;;;;;;;;;;;;;;11.32;100.00;95623.38;5078715;28;19956;-67
2023/03/10 12:13:52;;;;;;;;;;;;;;;11.44;100.00;95638.72;5076352;28;19967;-68
2023/03/10 12:16:20;;;;;;;;;;;;;;;11.35;100.00;95636.09;5077178;28;19929;-67
2023/03/10 12:18:47;;;;;;;;;;;;;;;11.33;100.00;95635.63;5079830;28;19963;-67
2023/03/10 12:21:19;;;;;;;;;;;;;;;11.41;100.00;95628.66;5080002;28;19924;-66
2023/03/10 12:23:46;;;;;;;;;;;;;;;11.31;100.00;95632.50;5076308;28;20014;-67
2023/03/10 12:26:13;;;;;;;;;;;;;;;11.38;100.00;95630.09;5076051;28;19924;-68
2023/03/10 12:28:39;;;;;;;;;;;;;;;11.41;100.00;95618.78;5079532;28;19994;-70
2023/03/10 12:31:09;;;;;;;;;;;;;;;11.62;100.00;95629.47;5066459;28;19921;-71
2023/03/10 12:33:46;;;;;;;;;;;;;;;11.66;100.00;95609.03;5076428;28;19978;-67
2023/03/10 12:36:14;;;;;;;;;;;;;;;11.62;100.00;95622.25;5058012;28;19988;-68
2023/03/10 12:38:47;;;;;;;;;;;;;;;11.55;100.00;95627.31;5057641;28;19924;-68
2023/03/10 12:41:14;;;;;;;;;;;;;;;11.53;100.00;95618.84;5075928;28;19952;-68
2023/03/10 12:44:01;;;;;;;;;;;;;;;11.66;100.00;95625.84;5079237;28;20253;-66
2023/03/10 12:46:42;;;;;;;;;;;;;;;11.71;100.00;95617.66;5058895;28;19988;-65
2023/03/10 12:49:21;;;;;;;;;;;;;;;11.66;100.00;95623.19;5075599;28;19947;-68